Time;durP1;ratioP1;P1;durP2;ratioP2;P2;SDS_P1;SDS_P2;PMS_P1;PMS_P2;Temp;Humidity;BMP_temperature;BMP_pressure;BME280_temperature;BME280_humidity;BME280_pressure;Samples;Min_cycle;Max_cycle;Signal;HPM_P1;HPM_P2
2022/01/21 00:01:25;;;;;;;;;;;;;;;-0.55;63.14;99753.72;5046300;28;20454;-80
2022/01/21 00:03:51;;;;;;;;;;;;;;;-0.73;63.66;99763.50;5047621;28;19912;-80
2022/01/21 00:06:17;;;;;;;;;;;;;;;-0.68;63.84;99761.94;5046843;28;19990;-80
2022/01/21 00:08:44;;;;;;;;;;;;;;;-0.50;63.38;99752.97;5041309;28;19956;-80
2022/01/21 00:11:10;;;;;;;;;;;;;;;-0.63;63.38;99770.75;5027870;28;19913;-80
2022/01/21 00:13:37;;;;;;;;;;;;;;;-0.70;63.58;99768.78;5046175;28;20326;-79
2022/01/21 00:16:03;;;;;;;;;;;;;;;-0.74;63.74;99767.81;5047117;28;19959;-79
2022/01/21 00:18:29;;;;;;;;;;;;;;;-0.76;64.58;99769.47;5047318;28;19916;-79
2022/01/21 00:31:50;;;;;;;;;;;;;;;-0.93;65.57;99771.53;5045415;28;19982;-80
2022/01/21 00:34:15;;;;;;;;;;;;;;;-0.88;64.97;99765.59;5047622;28;19917;-80
2022/01/21 00:36:40;;;;;;;;;;;;;;;-1.00;66.30;99773.88;5045463;28;19916;-79
2022/01/21 00:39:06;;;;;;;;;;;;;;;-1.29;66.94;99773.78;5046866;28;19913;-80
2022/01/21 00:41:36;;;;;;;;;;;;;;;-0.86;65.71;99769.16;5044627;28;19913;-80
2022/01/21 00:44:01;;;;;;;;;;;;;;;-0.71;65.66;99761.84;5047085;28;19916;-80
2022/01/21 00:46:26;;;;;;;;;;;;;;;-0.58;65.39;99748.44;5045409;28;19920;-80
2022/01/21 00:48:52;;;;;;;;;;;;;;;-0.53;64.97;99739.94;5046357;28;19920;-79
2022/01/21 00:51:17;;;;;;;;;;;;;;;-0.35;64.39;99742.19;5045718;28;19947;-80
2022/01/21 00:53:42;;;;;;;;;;;;;;;-0.27;63.83;99732.94;5047292;28;19919;-80
2022/01/21 00:56:08;;;;;;;;;;;;;;;-0.19;63.64;99726.25;5046907;28;20673;-80
2022/01/21 00:58:33;;;;;;;;;;;;;;;-0.34;63.83;99721.50;5046365;28;20634;-80
2022/01/21 01:00:58;;;;;;;;;;;;;;;-0.24;63.55;99720.91;5045631;28;19916;-80
2022/01/21 01:03:24;;;;;;;;;;;;;;;-0.44;64.10;99725.53;5047092;28;19917;-79
2022/01/21 01:05:52;;;;;;;;;;;;;;;-0.34;63.62;99723.19;5045466;28;20011;-79
2022/01/21 01:08:18;;;;;;;;;;;;;;;-0.39;63.99;99718.78;5046019;28;19920;-79
2022/01/21 01:11:11;;;;;;;;;;;;;;;-0.30;63.83;99715.56;5045866;28;19917;-79
2022/01/21 01:21:38;;;;;;;;;;;;;;;-1.08;67.66;99719.25;5044095;28;19970;-80
2022/01/21 01:29:13;;;;;;;;;;;;;;;-1.12;67.91;99719.97;5043742;28;19915;-79
2022/01/21 01:31:38;;;;;;;;;;;;;;;-1.30;68.60;99728.00;5044014;28;20291;-79
2022/01/21 01:34:04;;;;;;;;;;;;;;;-1.11;68.79;99714.84;5045587;28;20010;-80
2022/01/21 01:36:29;;;;;;;;;;;;;;;-0.96;67.82;99706.69;5046162;28;19924;-80
2022/01/21 01:41:40;;;;;;;;;;;;;;;-0.82;67.25;99709.72;5046423;28;20015;-79
2022/01/21 01:49:37;;;;;;;;;;;;;;;-0.65;66.75;99728.38;5045948;28;19998;-79
2022/01/21 01:52:07;;;;;;;;;;;;;;;-0.55;66.30;99738.16;5046892;28;19913;-80
2022/01/21 01:54:33;;;;;;;;;;;;;;;-0.39;66.24;99736.03;5046016;28;19915;-80
2022/01/21 01:56:59;;;;;;;;;;;;;;;-0.25;65.85;99751.97;5046027;28;19912;-79
2022/01/21 01:59:25;;;;;;;;;;;;;;;-0.22;66.28;99744.28;5046057;28;19924;-80
2022/01/21 02:01:55;;;;;;;;;;;;;;;-0.34;65.79;99741.34;5048820;28;19996;-80
2022/01/21 02:04:21;;;;;;;;;;;;;;;-0.46;66.42;99737.56;5049588;28;19920;-80
2022/01/21 02:06:46;;;;;;;;;;;;;;;-0.59;66.63;99754.47;5049682;28;19917;-79
2022/01/21 02:09:11;;;;;;;;;;;;;;;-0.63;66.89;99764.69;5050182;28;20422;-79
2022/01/21 02:11:37;;;;;;;;;;;;;;;-0.63;67.34;99762.09;5050019;28;20477;-79
2022/01/21 02:14:07;;;;;;;;;;;;;;;-0.55;67.38;99771.84;5049897;28;20000;-79
2022/01/21 02:16:43;;;;;;;;;;;;;;;-0.53;67.24;99764.13;5049250;28;20356;-80
2022/01/21 02:22:06;;;;;;;;;;;;;;;-0.52;67.15;99763.28;5026273;28;19937;-79
2022/01/21 02:24:45;;;;;;;;;;;;;;;-0.75;67.45;99750.50;5048371;28;19955;-80
2022/01/21 02:27:11;;;;;;;;;;;;;;;-0.63;67.47;99747.41;5048766;28;20556;-79
2022/01/21 02:29:45;;;;;;;;;;;;;;;-0.41;67.10;99743.75;5048886;28;19917;-79
2022/01/21 02:32:10;;;;;;;;;;;;;;;-0.35;66.91;99749.97;5048340;28;19908;-79
2022/01/21 02:34:36;;;;;;;;;;;;;;;-0.33;66.81;99756.06;5049478;28;20334;-79
2022/01/21 02:37:01;;;;;;;;;;;;;;;-0.52;67.99;99762.44;5047952;28;19960;-79
2022/01/21 02:39:26;;;;;;;;;;;;;;;-0.37;67.04;99762.91;5049495;28;19971;-79
2022/01/21 02:41:52;;;;;;;;;;;;;;;-0.48;67.31;99767.75;5048167;28;20056;-79
2022/01/21 02:44:18;;;;;;;;;;;;;;;-0.45;67.20;99757.47;5049346;28;20354;-79
2022/01/21 02:46:45;;;;;;;;;;;;;;;-0.37;67.02;99757.72;5047696;28;20387;-79
2022/01/21 02:49:10;;;;;;;;;;;;;;;-0.40;67.18;99770.56;5049271;28;19912;-79
2022/01/21 02:51:37;;;;;;;;;;;;;;;-0.39;67.42;99767.13;5049073;28;19921;-79
2022/01/21 02:54:05;;;;;;;;;;;;;;;-0.53;68.53;99776.22;5048482;28;19923;-79
2022/01/21 02:56:35;;;;;;;;;;;;;;;-0.43;67.68;99763.56;5048721;28;19921;-79
2022/01/21 02:59:01;;;;;;;;;;;;;;;-0.59;68.55;99766.53;5049249;28;19913;-79
2022/01/21 03:01:26;;;;;;;;;;;;;;;-0.64;68.98;99758.59;5048281;28;19923;-80
2022/01/21 03:03:52;;;;;;;;;;;;;;;-0.82;68.99;99753.75;5048707;28;19924;-79
2022/01/21 03:06:19;;;;;;;;;;;;;;;-0.51;68.58;99752.09;5048812;28;19912;-79
2022/01/21 03:08:47;;;;;;;;;;;;;;;-0.39;67.73;99756.75;5048638;28;19923;-79
2022/01/21 03:11:12;;;;;;;;;;;;;;;-0.42;67.89;99756.66;5049114;28;19956;-79
2022/01/21 03:13:39;;;;;;;;;;;;;;;-0.03;67.62;99762.16;5047930;28;20021;-79
2022/01/21 03:16:04;;;;;;;;;;;;;;;0.12;66.59;99769.47;5048368;28;19991;-80
2022/01/21 03:18:29;;;;;;;;;;;;;;;0.33;66.37;99771.81;5048697;28;19921;-79
2022/01/21 03:20:55;;;;;;;;;;;;;;;0.35;66.15;99770.13;5047244;28;19999;-79
2022/01/21 03:23:22;;;;;;;;;;;;;;;0.47;65.65;99758.31;5048397;28;20371;-79
2022/01/21 03:25:47;;;;;;;;;;;;;;;0.58;65.74;99751.69;5048378;28;19909;-79
2022/01/21 03:28:14;;;;;;;;;;;;;;;0.69;65.49;99733.78;5048693;28;20320;-79
2022/01/21 03:30:39;;;;;;;;;;;;;;;0.60;65.69;99733.56;5048144;28;20007;-79
2022/01/21 03:33:05;;;;;;;;;;;;;;;0.39;66.11;99739.97;5048410;28;20034;-79
2022/01/21 03:35:30;;;;;;;;;;;;;;;0.49;67.02;99754.03;5048344;28;20363;-80
2022/01/21 03:37:56;;;;;;;;;;;;;;;0.33;67.79;99737.19;5047764;28;20439;-80
2022/01/21 03:40:22;;;;;;;;;;;;;;;0.56;67.14;99727.41;5046718;28;19917;-80
2022/01/21 03:42:47;;;;;;;;;;;;;;;0.64;66.78;99727.63;5048250;28;20295;-80
2022/01/21 03:45:13;;;;;;;;;;;;;;;0.67;66.93;99731.16;5046314;28;20331;-79
2022/01/21 03:47:39;;;;;;;;;;;;;;;0.65;67.22;99740.63;5047562;28;19920;-78
2022/01/21 03:52:45;;;;;;;;;;;;;;;0.30;67.77;99748.38;5045102;28;19920;-79
2022/01/21 03:55:10;;;;;;;;;;;;;;;0.41;67.29;99745.19;5046085;28;20310;-80
2022/01/21 03:57:35;;;;;;;;;;;;;;;0.53;66.52;99738.59;5047573;28;19916;-79
2022/01/21 04:00:03;;;;;;;;;;;;;;;0.38;67.41;99732.13;5047679;28;19913;-79
2022/01/21 04:02:28;;;;;;;;;;;;;;;0.74;66.08;99731.31;5045991;28;20430;-80
2022/01/21 04:04:54;;;;;;;;;;;;;;;0.93;65.31;99737.84;5047871;28;20003;-80
2022/01/21 04:07:19;;;;;;;;;;;;;;;0.81;64.71;99746.22;5046761;28;20402;-80
2022/01/21 04:09:44;;;;;;;;;;;;;;;0.74;64.96;99742.56;5047171;28;19912;-82
2022/01/21 04:12:10;;;;;;;;;;;;;;;0.75;64.96;99749.53;5047592;28;19967;-82
2022/01/21 04:14:35;;;;;;;;;;;;;;;0.78;65.05;99749.59;5048450;28;20003;-82
2022/01/21 04:17:00;;;;;;;;;;;;;;;0.73;65.62;99750.31;5045905;28;19963;-82
2022/01/21 04:19:26;;;;;;;;;;;;;;;0.62;66.56;99752.63;5047636;28;19923;-80
2022/01/21 04:21:52;;;;;;;;;;;;;;;0.44;66.98;99753.91;5047156;28;19909;-81
2022/01/21 04:24:17;;;;;;;;;;;;;;;0.15;67.73;99754.00;5045021;28;19967;-79
2022/01/21 04:26:43;;;;;;;;;;;;;;;0.43;67.63;99731.38;5047179;28;20015;-79
2022/01/21 04:29:08;;;;;;;;;;;;;;;0.44;67.40;99727.97;5046984;28;20434;-79
2022/01/21 04:31:33;;;;;;;;;;;;;;;0.63;66.34;99731.03;5045637;28;19913;-78
2022/01/21 04:33:59;;;;;;;;;;;;;;;0.64;65.83;99723.28;5046861;28;20512;-79
2022/01/21 04:36:24;;;;;;;;;;;;;;;0.47;66.71;99716.78;5046841;28;19920;-78
2022/01/21 04:38:52;;;;;;;;;;;;;;;0.32;67.63;99712.06;5046935;28;20006;-78
2022/01/21 04:49:29;;;;;;;;;;;;;;;0.41;67.20;99714.91;5046927;28;20385;-78
2022/01/21 04:52:03;;;;;;;;;;;;;;;0.52;66.69;99722.97;5046295;28;19925;-79
2022/01/21 04:54:29;;;;;;;;;;;;;;;0.55;66.11;99748.16;5046559;28;19962;-78
2022/01/21 04:56:54;;;;;;;;;;;;;;;0.83;65.25;99754.91;5047075;28;19916;-78
2022/01/21 04:59:20;;;;;;;;;;;;;;;1.02;64.45;99748.44;5045243;28;19986;-78
2022/01/21 05:01:45;;;;;;;;;;;;;;;1.19;63.79;99747.16;5046228;28;19916;-78
2022/01/21 05:04:10;;;;;;;;;;;;;;;1.41;63.52;99760.66;5047416;28;20338;-79
2022/01/21 05:06:36;;;;;;;;;;;;;;;1.48;62.82;99764.25;5047443;28;20358;-79
2022/01/21 05:09:02;;;;;;;;;;;;;;;1.47;62.86;99765.09;5046831;28;20079;-79
2022/01/21 05:11:27;;;;;;;;;;;;;;;1.48;62.98;99767.72;5046423;28;19963;-79
2022/01/21 05:13:58;;;;;;;;;;;;;;;1.62;62.56;99775.84;5045694;28;20379;-80
2022/01/21 05:16:34;;;;;;;;;;;;;;;1.65;62.38;99777.63;5045831;28;19913;-78
2022/01/21 05:19:02;;;;;;;;;;;;;;;1.66;62.41;99787.22;5046498;28;19912;-78
2022/01/21 05:21:27;;;;;;;;;;;;;;;1.80;62.28;99788.38;5045608;28;20330;-79
2022/01/21 05:23:52;;;;;;;;;;;;;;;1.87;61.77;99798.09;5046124;28;19909;-79
2022/01/21 05:26:18;;;;;;;;;;;;;;;1.81;62.52;99799.66;5046575;28;19958;-79
2022/01/21 05:28:43;;;;;;;;;;;;;;;1.72;63.02;99793.41;5046204;28;20274;-78
2022/01/21 05:31:09;;;;;;;;;;;;;;;1.83;63.08;99795.38;5044739;28;19916;-79
2022/01/21 05:33:34;;;;;;;;;;;;;;;1.88;62.54;99807.63;5045812;28;19999;-79
2022/01/21 05:35:59;;;;;;;;;;;;;;;1.82;62.78;99809.22;5045593;28;19979;-79
2022/01/21 05:38:25;;;;;;;;;;;;;;;1.36;64.08;99830.72;5045259;28;19915;-79
2022/01/21 05:40:51;;;;;;;;;;;;;;;1.45;63.38;99830.06;5044930;28;19924;-78
2022/01/21 05:43:16;;;;;;;;;;;;;;;1.62;63.06;99843.44;5045693;28;19923;-79
2022/01/21 05:48:25;;;;;;;;;;;;;;;1.67;63.49;99853.97;5044491;28;19935;-78
2022/01/21 05:50:51;;;;;;;;;;;;;;;1.77;63.38;99850.75;5045356;28;19909;-79
2022/01/21 05:53:16;;;;;;;;;;;;;;;1.81;63.25;99852.59;5045399;28;19912;-78
2022/01/21 05:55:43;;;;;;;;;;;;;;;1.74;63.35;99856.75;5045535;28;19974;-79
2022/01/21 05:58:09;;;;;;;;;;;;;;;1.75;63.86;99860.25;5046116;28;19920;-79
2022/01/21 06:00:35;;;;;;;;;;;;;;;1.80;63.76;99869.03;5044764;28;20093;-78
2022/01/21 06:03:00;;;;;;;;;;;;;;;1.71;64.77;99869.69;5044703;28;19913;-79
2022/01/21 06:05:26;;;;;;;;;;;;;;;1.89;64.59;99886.56;5046478;28;20382;-79
2022/01/21 06:07:51;;;;;;;;;;;;;;;1.83;65.79;99889.03;5045622;28;19913;-78
2022/01/21 06:10:16;;;;;;;;;;;;;;;1.55;67.14;99907.44;5045293;28;20306;-79
2022/01/21 06:12:42;;;;;;;;;;;;;;;1.57;68.76;99900.56;5045299;28;19917;-78
2022/01/21 06:15:07;;;;;;;;;;;;;;;1.76;69.72;99903.59;5044996;28;20611;-80
2022/01/21 06:17:34;;;;;;;;;;;;;;;1.67;70.54;99905.97;5044552;28;20028;-79
2022/01/21 06:19:59;;;;;;;;;;;;;;;2.07;71.90;99909.50;5046021;28;19944;-79
2022/01/21 06:22:25;;;;;;;;;;;;;;;2.34;71.79;99904.06;5044953;28;20430;-78
2022/01/21 06:24:53;;;;;;;;;;;;;;;2.45;72.28;99918.16;5046092;28;20349;-78
2022/01/21 06:27:25;;;;;;;;;;;;;;;2.41;72.45;99921.56;5045740;28;20028;-79
2022/01/21 06:29:51;;;;;;;;;;;;;;;2.31;72.39;99917.00;5046355;28;19919;-79
2022/01/21 06:32:16;;;;;;;;;;;;;;;2.29;72.50;99923.91;5044893;28;19916;-79
2022/01/21 06:34:42;;;;;;;;;;;;;;;2.17;72.56;99932.31;5041053;28;20431;-79
2022/01/21 06:37:07;;;;;;;;;;;;;;;2.10;73.23;99933.91;5041654;28;19979;-79
2022/01/21 06:39:32;;;;;;;;;;;;;;;2.01;74.32;99941.50;5045326;28;20361;-79
2022/01/21 06:41:58;;;;;;;;;;;;;;;1.95;75.54;99942.22;5046048;28;20419;-79
2022/01/21 06:44:23;;;;;;;;;;;;;;;2.03;75.49;99946.75;5045131;28;20346;-78
2022/01/21 06:46:48;;;;;;;;;;;;;;;2.00;76.91;99947.53;5026459;28;19942;-78
2022/01/21 06:49:14;;;;;;;;;;;;;;;1.74;78.02;99950.38;5054123;28;19913;-79
2022/01/21 06:51:39;;;;;;;;;;;;;;;1.69;80.00;99956.31;5029383;28;20335;-79
2022/01/21 06:54:04;;;;;;;;;;;;;;;1.82;80.62;99968.78;5048412;28;19923;-79
2022/01/21 06:56:30;;;;;;;;;;;;;;;1.93;80.41;99966.44;5044462;28;20003;-79
2022/01/21 06:58:56;;;;;;;;;;;;;;;1.87;81.91;99980.19;5050094;28;19938;-78
2022/01/21 07:01:21;;;;;;;;;;;;;;;2.02;81.91;99978.81;5048809;28;19935;-78
2022/01/21 07:03:46;;;;;;;;;;;;;;;2.02;83.97;99977.06;5048822;28;20647;-80
2022/01/21 07:06:12;;;;;;;;;;;;;;;2.17;84.20;99980.91;5049043;28;20389;-80
2022/01/21 07:08:37;;;;;;;;;;;;;;;2.24;84.92;99978.47;5048981;28;19913;-79
2022/01/21 07:11:02;;;;;;;;;;;;;;;2.05;86.87;99979.75;5049067;28;20287;-79
2022/01/21 07:13:28;;;;;;;;;;;;;;;2.08;87.35;99987.63;5049103;28;19978;-79
2022/01/21 07:15:53;;;;;;;;;;;;;;;2.11;87.44;99992.91;5048537;28;19913;-79
2022/01/21 07:18:18;;;;;;;;;;;;;;;2.03;87.79;99993.59;5048170;28;19924;-79
2022/01/21 07:20:44;;;;;;;;;;;;;;;1.90;89.11;100006.28;5049113;28;20355;-79
2022/01/21 07:23:09;;;;;;;;;;;;;;;1.87;89.37;100001.00;5048707;28;19913;-79
2022/01/21 07:25:35;;;;;;;;;;;;;;;1.86;89.42;100013.97;5048794;28;20390;-79
2022/01/21 07:28:01;;;;;;;;;;;;;;;1.83;90.93;100012.16;5048812;28;19912;-79
2022/01/21 07:30:26;;;;;;;;;;;;;;;1.86;90.49;100027.00;5048788;28;19917;-79
2022/01/21 07:32:51;;;;;;;;;;;;;;;1.90;90.48;100029.72;5048253;28;19912;-79
2022/01/21 07:35:17;;;;;;;;;;;;;;;1.95;90.16;100040.22;5048505;28;19912;-78
2022/01/21 07:37:42;;;;;;;;;;;;;;;1.87;90.50;100053.03;5048347;28;20290;-78
2022/01/21 07:40:08;;;;;;;;;;;;;;;1.78;90.60;100043.28;5048827;28;19916;-79
2022/01/21 07:42:33;;;;;;;;;;;;;;;1.76;90.98;100037.16;5048367;28;19995;-79
2022/01/21 07:44:59;;;;;;;;;;;;;;;1.94;90.96;100044.53;5048655;28;19916;-79
2022/01/21 07:47:24;;;;;;;;;;;;;;;1.91;90.41;100043.59;5047889;28;20345;-79
2022/01/21 07:49:50;;;;;;;;;;;;;;;1.85;90.55;100053.84;5048437;28;20781;-80
2022/01/21 07:52:15;;;;;;;;;;;;;;;1.77;91.35;100061.44;5045856;28;19924;-79
2022/01/21 07:54:41;;;;;;;;;;;;;;;1.81;91.20;100072.78;5048145;28;19916;-79
2022/01/21 07:57:06;;;;;;;;;;;;;;;1.81;91.09;100071.09;5048266;28;19912;-80
2022/01/21 07:59:32;;;;;;;;;;;;;;;1.76;91.16;100075.28;5047785;28;20006;-79
2022/01/21 08:01:57;;;;;;;;;;;;;;;1.81;90.73;100081.50;5044512;28;19975;-79
2022/01/21 08:04:22;;;;;;;;;;;;;;;1.89;90.34;100086.91;5048030;28;19919;-80
2022/01/21 08:06:48;;;;;;;;;;;;;;;1.87;89.69;100073.84;5045868;28;19912;-79
2022/01/21 08:09:13;;;;;;;;;;;;;;;1.82;89.86;100084.97;5048004;28;19913;-79
2022/01/21 08:11:38;;;;;;;;;;;;;;;1.95;90.15;100085.34;5031152;28;19936;-79
2022/01/21 08:14:04;;;;;;;;;;;;;;;1.94;90.74;100091.38;5027970;28;19923;-79
2022/01/21 08:16:29;;;;;;;;;;;;;;;1.91;90.96;100087.81;5027851;28;19936;-80
2022/01/21 08:18:54;;;;;;;;;;;;;;;2.11;89.96;100091.81;5028088;28;19917;-80
2022/01/21 08:21:20;;;;;;;;;;;;;;;2.17;90.24;100095.44;5027614;28;20295;-80
2022/01/21 08:23:46;;;;;;;;;;;;;;;2.14;89.80;100110.09;5044801;28;19924;-79
2022/01/21 08:26:11;;;;;;;;;;;;;;;2.06;90.19;100115.97;5047566;28;20268;-80
2022/01/21 08:28:37;;;;;;;;;;;;;;;2.07;90.30;100112.50;5046895;28;19952;-80
2022/01/21 08:31:02;;;;;;;;;;;;;;;2.21;89.79;100118.06;5039501;28;19917;-79
2022/01/21 08:33:28;;;;;;;;;;;;;;;2.36;88.55;100128.88;5027377;28;19917;-79
2022/01/21 08:35:54;;;;;;;;;;;;;;;2.27;87.91;100129.53;5026770;28;20497;-79
2022/01/21 08:38:21;;;;;;;;;;;;;;;2.25;88.10;100128.59;5027905;28;19912;-80
2022/01/21 08:40:47;;;;;;;;;;;;;;;2.33;87.88;100124.50;5026965;28;19917;-80
2022/01/21 08:43:12;;;;;;;;;;;;;;;2.31;87.15;100131.34;5027586;28;20031;-79
2022/01/21 08:45:37;;;;;;;;;;;;;;;2.15;87.64;100134.44;5026804;28;20351;-79
2022/01/21 08:48:04;;;;;;;;;;;;;;;2.18;87.28;100147.53;5027575;28;20349;-79
2022/01/21 08:50:30;;;;;;;;;;;;;;;2.23;86.43;100139.84;5026668;28;19913;-79
2022/01/21 08:53:07;;;;;;;;;;;;;;;2.04;86.03;100141.97;5046111;28;19982;-79
2022/01/21 08:55:32;;;;;;;;;;;;;;;2.13;87.06;100151.72;5047397;28;19912;-79
2022/01/21 08:57:57;;;;;;;;;;;;;;;2.00;86.14;100140.09;5046879;28;20334;-79
2022/01/21 09:00:23;;;;;;;;;;;;;;;2.11;85.81;100151.66;5047682;28;20654;-79
2022/01/21 09:02:51;;;;;;;;;;;;;;;2.01;86.24;100144.47;5046960;28;20349;-79
2022/01/21 09:05:16;;;;;;;;;;;;;;;2.25;84.78;100140.75;5046846;28;19919;-79
2022/01/21 09:07:41;;;;;;;;;;;;;;;2.06;85.42;100136.78;5046884;28;20302;-80
2022/01/21 09:10:07;;;;;;;;;;;;;;;2.15;85.05;100142.25;5046240;28;19999;-80
2022/01/21 09:12:33;;;;;;;;;;;;;;;2.24;84.04;100134.66;5046936;28;19912;-79
2022/01/21 09:14:58;;;;;;;;;;;;;;;2.21;83.73;100146.69;5047190;28;19932;-80
2022/01/21 09:17:24;;;;;;;;;;;;;;;2.10;84.44;100143.81;5046344;28;19979;-80
2022/01/21 09:19:49;;;;;;;;;;;;;;;2.17;85.18;100152.69;5047016;28;19942;-79
2022/01/21 09:22:15;;;;;;;;;;;;;;;2.13;84.31;100147.41;5046704;28;20007;-80
2022/01/21 09:24:40;;;;;;;;;;;;;;;2.01;84.64;100156.59;5046377;28;19920;-81
2022/01/21 09:27:06;;;;;;;;;;;;;;;1.98;84.36;100141.78;5047037;28;19912;-80
2022/01/21 09:29:32;;;;;;;;;;;;;;;2.10;83.68;100155.13;5046857;28;19964;-79
2022/01/21 09:31:58;;;;;;;;;;;;;;;2.10;83.90;100143.81;5046235;28;19913;-79
2022/01/21 09:34:25;;;;;;;;;;;;;;;2.16;82.81;100143.97;5046280;28;20454;-79
2022/01/21 09:36:51;;;;;;;;;;;;;;;2.22;82.38;100125.91;5046665;28;20371;-80
2022/01/21 09:39:16;;;;;;;;;;;;;;;2.14;81.51;100135.25;5046397;28;19960;-80
2022/01/21 09:41:43;;;;;;;;;;;;;;;2.15;81.58;100118.81;5046555;28;20029;-79
2022/01/21 09:44:11;;;;;;;;;;;;;;;2.33;81.08;100116.69;5046604;28;19966;-80
2022/01/21 09:46:37;;;;;;;;;;;;;;;2.42;78.71;100113.41;5046241;28;20358;-79
2022/01/21 09:49:25;;;;;;;;;;;;;;;2.54;78.89;100107.63;5046495;28;19956;-80
2022/01/21 09:51:55;;;;;;;;;;;;;;;2.69;78.25;100097.56;5045213;28;19916;-79
2022/01/21 09:54:25;;;;;;;;;;;;;;;2.76;78.08;100090.75;5046108;28;20383;-79
2022/01/21 09:56:52;;;;;;;;;;;;;;;2.76;77.86;100079.47;5045071;28;20301;-79
2022/01/21 09:59:18;;;;;;;;;;;;;;;2.58;75.96;100075.59;5045600;28;19983;-79
2022/01/21 10:01:44;;;;;;;;;;;;;;;2.69;75.95;100062.84;5046069;28;19905;-79
2022/01/21 10:04:11;;;;;;;;;;;;;;;2.65;75.18;100067.06;5045530;28;19948;-79
2022/01/21 10:06:37;;;;;;;;;;;;;;;2.82;74.23;100071.78;5045998;28;19909;-79
2022/01/21 10:09:02;;;;;;;;;;;;;;;2.83;73.53;100063.13;5045465;28;19913;-79
2022/01/21 10:11:28;;;;;;;;;;;;;;;2.90;72.70;100067.63;5046942;28;19939;-79
2022/01/21 10:13:53;;;;;;;;;;;;;;;2.86;73.30;100068.41;5044989;28;19912;-79
2022/01/21 10:16:19;;;;;;;;;;;;;;;2.81;72.74;100065.72;5046031;28;19986;-80
2022/01/21 10:19:11;;;;;;;;;;;;;;;2.74;71.16;100061.19;5046160;28;19912;-79
2022/01/21 10:21:39;;;;;;;;;;;;;;;2.84;70.80;100054.44;5043518;28;19919;-80
2022/01/21 10:24:06;;;;;;;;;;;;;;;2.70;70.67;100059.34;5049963;28;19920;-79
2022/01/21 10:26:31;;;;;;;;;;;;;;;2.77;69.21;100058.66;5049199;28;20394;-80
2022/01/21 10:28:57;;;;;;;;;;;;;;;2.85;69.34;100056.22;5049014;28;19916;-79
2022/01/21 10:31:24;;;;;;;;;;;;;;;2.69;69.31;100061.09;5037498;28;20012;-81
2022/01/21 10:33:51;;;;;;;;;;;;;;;2.76;68.40;100061.22;5028706;28;19913;-81
2022/01/21 10:36:25;;;;;;;;;;;;;;;2.81;69.11;100057.00;5027319;28;20816;-80
2022/01/21 10:38:51;;;;;;;;;;;;;;;2.69;68.93;100048.06;5027423;28;19913;-80
2022/01/21 10:41:18;;;;;;;;;;;;;;;2.70;68.68;100054.16;5047533;28;19919;-79
2022/01/21 10:43:45;;;;;;;;;;;;;;;2.72;69.25;100046.38;5047653;28;19913;-81
2022/01/21 10:46:14;;;;;;;;;;;;;;;2.73;68.71;100045.53;5047622;28;19909;-79
2022/01/21 10:48:56;;;;;;;;;;;;;;;2.83;68.85;100047.50;5048180;28;20442;-79
2022/01/21 10:51:25;;;;;;;;;;;;;;;2.66;68.24;100050.59;5047347;28;20429;-80
2022/01/21 10:53:50;;;;;;;;;;;;;;;2.66;68.98;100040.19;5048205;28;20383;-81
2022/01/21 10:56:17;;;;;;;;;;;;;;;2.74;68.85;100036.88;5047750;28;19939;-80
2022/01/21 10:58:43;;;;;;;;;;;;;;;2.71;68.73;100034.22;5048092;28;19964;-81
2022/01/21 11:01:21;;;;;;;;;;;;;;;2.82;68.12;100024.88;5047057;28;19990;-80
2022/01/21 11:03:58;;;;;;;;;;;;;;;2.80;67.83;100024.84;5047215;28;19904;-79
2022/01/21 11:06:26;;;;;;;;;;;;;;;2.80;66.88;100022.25;5048338;28;19912;-82
2022/01/21 11:09:10;;;;;;;;;;;;;;;2.76;67.29;100015.19;5046520;28;19942;-79
2022/01/21 11:11:36;;;;;;;;;;;;;;;2.66;65.47;100023.69;5047612;28;19958;-81
2022/01/21 11:14:08;;;;;;;;;;;;;;;2.79;64.05;100015.28;5046387;28;20023;-80
2022/01/21 11:16:34;;;;;;;;;;;;;;;2.69;62.91;100014.19;5047475;28;19913;-81
2022/01/21 11:19:08;;;;;;;;;;;;;;;2.77;62.56;100021.31;5047710;28;19963;-80
2022/01/21 11:21:44;;;;;;;;;;;;;;;2.67;63.87;100015.91;5047210;28;19912;-80
2022/01/21 11:24:10;;;;;;;;;;;;;;;2.70;63.66;100020.28;5026316;28;20400;-79
2022/01/21 11:26:36;;;;;;;;;;;;;;;2.72;63.67;100017.72;5026534;28;19909;-81
2022/01/21 11:29:03;;;;;;;;;;;;;;;2.73;63.24;100022.09;5027677;28;19909;-78
2022/01/21 11:31:29;;;;;;;;;;;;;;;2.57;63.29;100028.69;5026963;28;19921;-80
2022/01/21 11:33:54;;;;;;;;;;;;;;;2.87;64.88;100028.47;5026839;28;19986;-80
2022/01/21 11:36:19;;;;;;;;;;;;;;;2.75;63.86;100017.78;5026668;28;19913;-80
2022/01/21 11:38:48;;;;;;;;;;;;;;;2.64;63.80;100020.16;5026784;28;19919;-80
2022/01/21 11:41:14;;;;;;;;;;;;;;;2.85;64.17;100027.56;5026598;28;19917;-81
2022/01/21 11:43:45;;;;;;;;;;;;;;;2.81;64.92;100034.44;5026339;28;19913;-80
2022/01/21 11:48:51;;;;;;;;;;;;;;;2.26;66.51;100021.03;5027344;28;20421;-80
2022/01/21 11:51:33;;;;;;;;;;;;;;;2.30;66.85;100021.97;5031692;28;19917;-80
2022/01/21 11:54:00;;;;;;;;;;;;;;;2.31;67.48;100021.13;5046505;28;19909;-80
2022/01/21 11:56:37;;;;;;;;;;;;;;;2.55;65.43;100030.34;5046293;28;19923;-80
2022/01/21 11:59:02;;;;;;;;;;;;;;;2.72;64.84;100030.72;5047191;28;19970;-80
2022/01/21 12:01:32;;;;;;;;;;;;;;;2.75;63.88;100013.47;5046915;28;19920;-80
2022/01/21 12:03:58;;;;;;;;;;;;;;;2.76;63.59;100012.59;5046188;28;19921;-80
2022/01/21 12:06:34;;;;;;;;;;;;;;;2.90;63.50;100007.69;5046867;28;19912;-79
2022/01/21 12:09:01;;;;;;;;;;;;;;;3.04;62.25;100000.16;5047122;28;19966;-80
2022/01/21 12:11:30;;;;;;;;;;;;;;;3.00;61.45;100006.16;5046636;28;19952;-81
2022/01/21 12:13:55;;;;;;;;;;;;;;;3.16;61.37;100005.59;5046369;28;19917;-79
2022/01/21 12:16:46;;;;;;;;;;;;;;;3.19;60.91;100000.44;5046689;28;19908;-80
2022/01/21 12:19:22;;;;;;;;;;;;;;;3.04;59.99;100006.25;5047004;28;19919;-80
2022/01/21 12:21:48;;;;;;;;;;;;;;;3.04;58.93;100006.25;5046385;28;19916;-80
2022/01/21 12:24:16;;;;;;;;;;;;;;;3.01;59.85;100014.03;5046866;28;19908;-78
2022/01/21 12:26:55;;;;;;;;;;;;;;;3.10;58.66;100009.84;5046496;28;19913;-80
2022/01/21 12:29:23;;;;;;;;;;;;;;;3.18;58.11;100014.38;5046620;28;19955;-79
2022/01/21 12:31:54;;;;;;;;;;;;;;;3.16;57.62;100010.81;5046055;28;19913;-79
2022/01/21 12:34:20;;;;;;;;;;;;;;;3.33;56.54;100002.47;5046527;28;19963;-80
2022/01/21 12:36:49;;;;;;;;;;;;;;;3.20;56.30;100007.44;5046065;28;19908;-81
2022/01/21 12:39:33;;;;;;;;;;;;;;;3.11;56.56;100009.88;5046389;28;19962;-79
2022/01/21 12:42:18;;;;;;;;;;;;;;;3.17;55.54;100002.16;5045996;28;19943;-80
2022/01/21 12:44:44;;;;;;;;;;;;;;;3.51;55.77;99996.72;5045555;28;19919;-81
2022/01/21 12:47:27;;;;;;;;;;;;;;;3.57;54.74;99999.44;5045538;28;19908;-80
2022/01/21 12:49:54;;;;;;;;;;;;;;;3.43;54.07;99993.06;5045795;28;19913;-80
2022/01/21 12:52:33;;;;;;;;;;;;;;;3.50;53.41;99989.75;5044370;28;19908;-81
2022/01/21 12:57:43;;;;;;;;;;;;;;;3.33;52.66;99998.13;5045087;28;19919;-80
2022/01/21 13:00:09;;;;;;;;;;;;;;;3.29;53.24;100009.34;5044923;28;19913;-80
2022/01/21 13:02:35;;;;;;;;;;;;;;;3.29;53.70;100003.25;5045418;28;19913;-81
2022/01/21 13:05:12;;;;;;;;;;;;;;;3.40;53.82;99993.91;5045341;28;19913;-80
2022/01/21 13:07:56;;;;;;;;;;;;;;;3.34;53.47;99999.00;5045919;28;20371;-81
2022/01/21 13:10:26;;;;;;;;;;;;;;;3.39;52.92;99994.75;5044384;28;19919;-80
2022/01/21 13:15:42;;;;;;;;;;;;;;;3.61;52.26;99985.59;5045735;28;20429;-80
2022/01/21 13:18:28;;;;;;;;;;;;;;;3.49;52.05;99988.88;5045714;28;19956;-80
2022/01/21 13:20:55;;;;;;;;;;;;;;;3.48;52.29;99989.72;5044890;28;19912;-81
2022/01/21 13:23:40;;;;;;;;;;;;;;;3.51;51.92;99984.56;5043616;28;19912;-81
2022/01/21 13:26:30;;;;;;;;;;;;;;;3.47;52.24;99976.66;5045191;28;20014;-80
2022/01/21 13:28:57;;;;;;;;;;;;;;;3.49;52.76;99983.66;5037496;28;19948;-81
2022/01/21 13:31:23;;;;;;;;;;;;;;;3.51;52.32;99981.06;5044234;28;19913;-81
2022/01/21 13:33:49;;;;;;;;;;;;;;;3.50;51.66;99977.56;5045089;28;20385;-79
2022/01/21 13:36:16;;;;;;;;;;;;;;;3.46;51.53;99983.59;5045630;28;19920;-80
2022/01/21 13:38:42;;;;;;;;;;;;;;;3.48;51.49;99984.50;5045002;28;19931;-80
2022/01/21 13:41:11;;;;;;;;;;;;;;;3.48;51.16;99981.03;5045480;28;19917;-81
2022/01/21 13:43:36;;;;;;;;;;;;;;;3.51;51.86;99981.06;5044721;28;19920;-81
2022/01/21 13:46:08;;;;;;;;;;;;;;;3.55;51.26;99995.91;5045509;28;19909;-83
2022/01/21 13:48:34;;;;;;;;;;;;;;;3.71;51.46;99986.66;5045061;28;19920;-82